Time;durP1;ratioP1;P1;durP2;ratioP2;P2;SDS_P1;SDS_P2;PMS_P1;PMS_P2;Temp;Humidity;BMP_temperature;BMP_pressure;BME280_temperature;BME280_humidity;BME280_pressure;Samples;Min_cycle;Max_cycle;Signal;HPM_P1;HPM_P2
2021/11/13 00:01:09;;;;;;;32.90;18.27;;;;;;;12.23;52.02;95309.97;4992572;28;20537;-76
2021/11/13 00:03:35;;;;;;;30.25;18.85;;;;;;;12.27;51.84;95306.66;4992582;28;20031;-74
2021/11/13 00:06:00;;;;;;;39.67;18.92;;;;;;;12.28;52.03;95308.22;4992569;28;20385;-75
2021/11/13 00:08:26;;;;;;;40.45;20.52;;;;;;;12.30;51.64;95301.50;4992226;28;20030;-75
2021/11/13 00:10:51;;;;;;;31.77;19.63;;;;;;;12.30;51.50;95296.16;4981045;28;20050;-75
2021/11/13 00:13:20;;;;;;;53.28;19.80;;;;;;;12.33;51.43;95300.88;4990291;28;20042;-75
2021/11/13 00:15:45;;;;;;;63.97;21.60;;;;;;;12.32;51.34;95296.63;5007119;28;20062;-74
2021/11/13 00:18:11;;;;;;;28.60;18.08;;;;;;;12.44;51.46;95304.84;4992401;28;20061;-73
2021/11/13 00:20:37;;;;;;;25.80;16.92;;;;;;;12.46;51.45;95305.28;4991848;28;20061;-73
2021/11/13 00:23:02;;;;;;;32.85;18.30;;;;;;;12.39;51.19;95301.53;4991833;28;20030;-73
2021/11/13 00:25:28;;;;;;;36.80;18.23;;;;;;;12.48;51.49;95312.97;4991607;28;20497;-74
2021/11/13 00:27:53;;;;;;;25.15;17.58;;;;;;;12.42;51.02;95301.69;4987290;28;20436;-74
2021/11/13 00:30:19;;;;;;;25.23;17.48;;;;;;;12.48;51.36;95312.97;4991658;28;20353;-74
2021/11/13 00:32:44;;;;;;;37.42;18.58;;;;;;;12.48;51.24;95308.44;4992026;28;20034;-74
2021/11/13 00:35:10;;;;;;;29.25;16.60;;;;;;;12.53;51.16;95304.03;4991855;28;20030;-76
2021/11/13 00:37:36;;;;;;;68.13;19.58;;;;;;;12.45;51.08;95306.41;4991535;28;20023;-73
2021/11/13 00:40:02;;;;;;;41.83;18.60;;;;;;;12.48;50.98;95307.66;4986771;28;20185;-73
2021/11/13 00:42:28;;;;;;;25.52;17.23;;;;;;;12.42;51.05;95299.00;4991264;28;20035;-73
2021/11/13 00:44:53;;;;;;;29.10;16.85;;;;;;;12.44;50.86;95290.72;4991515;28;20037;-73
2021/11/13 00:47:19;;;;;;;34.15;17.92;;;;;;;12.48;50.75;95296.97;4991782;28;20053;-74
2021/11/13 00:49:45;;;;;;;32.45;18.70;;;;;;;12.36;51.00;95289.59;4991758;28;20033;-73
2021/11/13 00:52:10;;;;;;;35.30;18.23;;;;;;;12.34;51.15;95288.34;4991771;28;20401;-74
2021/11/13 00:54:36;;;;;;;36.42;17.52;;;;;;;12.39;50.47;95285.53;4989793;28;20077;-74
2021/11/13 00:57:04;;;;;;;41.17;16.00;;;;;;;12.28;50.27;95286.91;4971865;28;20026;-74
2021/11/13 00:59:30;;;;;;;49.65;17.10;;;;;;;11.80;51.22;95285.78;4983089;28;20050;-74
2021/11/13 01:01:56;;;;;;;38.75;18.05;;;;;;;11.63;51.23;95286.50;4991455;28;20029;-74
2021/11/13 01:04:22;;;;;;;46.97;19.40;;;;;;;11.55;52.74;95281.13;4991123;28;20019;-76
2021/11/13 01:06:48;;;;;;;34.40;18.80;;;;;;;11.58;52.36;95275.97;4991407;28;20026;-74
2021/11/13 01:09:13;;;;;;;40.90;19.05;;;;;;;11.78;52.54;95281.88;4990634;28;20377;-74
2021/11/13 01:11:39;;;;;;;20.17;14.43;;;;;;;11.77;51.73;95267.72;4986405;28;20027;-75
2021/11/13 01:14:04;;;;;;;35.30;15.88;;;;;;;11.89;51.35;95281.31;4989525;28;20451;-73
2021/11/13 01:16:30;;;;;;;20.75;13.80;;;;;;;11.87;51.28;95283.47;4971594;28;20031;-74
2021/11/13 01:18:56;;;;;;;27.10;14.68;;;;;;;11.82;51.33;95278.28;4971351;28;20047;-74
2021/11/13 01:21:23;;;;;;;32.03;16.10;;;;;;;11.92;51.68;95278.00;4971738;28;20098;-74
2021/11/13 01:23:49;;;;;;;78.25;20.75;;;;;;;11.93;51.42;95276.94;4972463;28;20236;-74
2021/11/13 01:26:15;;;;;;;15.55;14.10;;;;;;;11.94;50.91;95257.19;4990808;28;20057;-73
2021/11/13 01:28:40;;;;;;;27.90;13.85;;;;;;;11.94;50.74;95261.72;4990533;28;20552;-73
2021/11/13 01:31:07;;;;;;;34.03;15.18;;;;;;;12.00;51.02;95268.47;4990861;28;20022;-73
2021/11/13 01:33:34;;;;;;;16.65;14.77;;;;;;;11.96;51.53;95265.63;4990607;28;20547;-74
2021/11/13 01:35:59;;;;;;;16.08;14.23;;;;;;;12.00;50.79;95262.38;4991176;28;20034;-73
2021/11/13 01:38:26;;;;;;;25.25;15.00;;;;;;;12.06;51.47;95259.25;4991039;28;20641;-73
2021/11/13 01:40:51;;;;;;;21.50;15.82;;;;;;;12.05;51.50;95249.69;4990336;28;20657;-73
2021/11/13 01:43:17;;;;;;;21.17;14.60;;;;;;;12.04;50.92;95255.31;4986301;28;20113;-74
2021/11/13 01:45:42;;;;;;;17.83;14.70;;;;;;;12.03;51.34;95243.06;4991206;28;20193;-73
2021/11/13 01:48:08;;;;;;;33.88;15.15;;;;;;;12.00;51.11;95249.03;4990181;28;20053;-73
2021/11/13 01:50:37;;;;;;;26.42;13.82;;;;;;;12.07;50.56;95252.03;4990710;28;20038;-73
2021/11/13 01:53:03;;;;;;;37.35;14.75;;;;;;;12.03;50.98;95259.06;4991116;28;20031;-73
2021/11/13 01:55:34;;;;;;;25.67;11.93;;;;;;;11.96;50.83;95243.53;4985783;28;20395;-73
2021/11/13 01:58:01;;;;;;;22.60;12.95;;;;;;;11.84;50.79;95246.00;4986865;28;20431;-74
2021/11/13 02:00:38;;;;;;;33.88;13.80;;;;;;;11.93;51.07;95250.28;4990505;28;20030;-73
2021/11/13 02:03:04;;;;;;;27.63;12.48;;;;;;;11.85;50.95;95244.91;4990764;28;20031;-73
2021/11/13 02:05:30;;;;;;;51.85;14.27;;;;;;;11.67;50.83;95236.06;4990986;28;20073;-73
2021/11/13 02:07:56;;;;;;;53.72;19.58;;;;;;;11.74;50.87;95249.72;4990754;28;20038;-73
2021/11/13 02:10:23;;;;;;;33.58;14.15;;;;;;;11.78;51.03;95252.56;4985366;28;20019;-73
2021/11/13 02:12:48;;;;;;;18.55;13.25;;;;;;;11.63;51.14;95241.22;4995173;28;20122;-74
2021/11/13 02:15:14;;;;;;;19.17;13.15;;;;;;;11.76;51.36;95244.06;4990497;28;20117;-73
2021/11/13 02:17:40;;;;;;;27.48;13.60;;;;;;;11.80;51.24;95251.13;4990704;28;20437;-73
2021/11/13 02:20:22;;;;;;;25.85;12.27;;;;;;;11.83;51.42;95244.44;4989935;28;20464;-74
2021/11/13 02:22:48;;;;;;;19.63;11.57;;;;;;;11.87;50.92;95240.81;4989999;28;20554;-75
2021/11/13 02:25:15;;;;;;;76.75;13.35;;;;;;;11.21;51.31;95239.91;4985225;28;20099;-73
2021/11/13 02:27:41;;;;;;;93.50;15.60;;;;;;;10.34;53.75;95235.84;4980499;28;20465;-75
2021/11/13 02:30:07;;;;;;;93.20;15.00;;;;;;;10.30;53.65;95243.63;4986591;28;20101;-75
2021/11/13 02:32:33;;;;;;;69.82;15.65;;;;;;;10.56;53.43;95230.53;4989061;28;20083;-75
2021/11/13 02:34:58;;;;;;;152.38;22.10;;;;;;;10.98;53.66;95246.34;4989825;28;20472;-75
2021/11/13 02:37:28;;;;;;;103.15;14.52;;;;;;;10.06;54.22;95237.72;4990229;28;20061;-74
2021/11/13 02:39:54;;;;;;;125.28;15.07;;;;;;;9.56;56.17;95240.28;5000965;28;20552;-75
2021/11/13 02:42:22;;;;;;;143.80;14.23;;;;;;;8.51;59.67;95263.81;4983933;28;20098;-75
2021/11/13 02:44:50;;;;;;;135.43;15.15;;;;;;;8.64;59.61;95256.97;4989925;28;20033;-75
2021/11/13 02:47:16;;;;;;;162.88;19.10;;;;;;;9.72;58.03;95249.53;4990106;28;20029;-75
2021/11/13 02:49:43;;;;;;;69.75;16.38;;;;;;;10.27;56.84;95249.53;4990113;28;20026;-73
2021/11/13 02:52:08;;;;;;;77.78;17.38;;;;;;;10.56;55.23;95240.41;4990478;28;20014;-74
2021/11/13 02:54:33;;;;;;;82.70;16.90;;;;;;;10.73;54.78;95231.75;4988965;28;20026;-75
2021/11/13 02:56:59;;;;;;;132.48;16.30;;;;;;;10.83;54.77;95237.63;4985951;28;20057;-75
2021/11/13 02:59:24;;;;;;;147.15;17.08;;;;;;;10.43;54.51;95242.00;4991396;28;20361;-74
2021/11/13 03:01:50;;;;;;;144.75;16.05;;;;;;;9.87;55.89;95245.81;4993714;28;20060;-74
2021/11/13 03:04:15;;;;;;;167.77;19.15;;;;;;;10.32;55.51;95264.59;4993216;28;20458;-71
2021/11/13 03:06:41;;;;;;;88.60;18.67;;;;;;;10.56;55.18;95245.72;4992047;28;20038;-72
2021/11/13 03:09:06;;;;;;;178.38;18.33;;;;;;;10.28;54.59;95245.78;4992284;28;20586;-72
2021/11/13 03:11:32;;;;;;;283.70;27.60;;;;;;;9.95;56.00;95252.31;4988008;28;20031;-72
2021/11/13 03:13:57;;;;;;;124.07;17.60;;;;;;;10.03;56.24;95264.88;4992618;28;20026;-74
2021/11/13 03:16:23;;;;;;;219.43;20.42;;;;;;;9.80;56.40;95256.03;4992991;28;20053;-71
2021/11/13 03:18:49;;;;;;;141.70;18.73;;;;;;;9.66;57.39;95264.00;4992675;28;20069;-74
2021/11/13 03:21:15;;;;;;;282.83;20.30;;;;;;;8.71;59.43;95262.72;4992850;28;20073;-71
2021/11/13 03:23:42;;;;;;;262.27;19.98;;;;;;;9.25;58.67;95267.38;4992797;28;20030;-73
2021/11/13 03:26:16;;;;;;;211.27;21.77;;;;;;;9.21;59.88;95261.09;4987629;28;20085;-71
2021/11/13 03:28:47;;;;;;;273.95;26.23;;;;;;;9.76;58.92;95255.84;4997277;28;20093;-73
2021/11/13 03:31:13;;;;;;;296.17;24.30;;;;;;;9.45;58.57;95254.84;4992352;28;20033;-74
2021/11/13 03:33:40;;;;;;;259.15;24.45;;;;;;;9.90;57.47;95261.94;4991215;28;20269;-71
2021/11/13 03:36:06;;;;;;;344.58;32.20;;;;;;;9.88;57.67;95258.03;4992349;28;20158;-73
2021/11/13 03:38:35;;;;;;;263.13;29.77;;;;;;;10.15;57.62;95251.88;4991720;28;20030;-71
2021/11/13 03:41:02;;;;;;;232.40;23.67;;;;;;;9.40;57.31;95255.72;4996554;28;20092;-73
2021/11/13 03:43:28;;;;;;;403.67;31.33;;;;;;;9.02;59.48;95263.81;4987233;28;20400;-71
2021/11/13 03:45:53;;;;;;;390.20;24.17;;;;;;;8.63;60.39;95266.78;4992498;28;20037;-72
2021/11/13 03:48:19;;;;;;;254.40;21.70;;;;;;;8.24;62.30;95262.56;4992309;28;20026;-72
2021/11/13 03:50:47;;;;;;;256.65;21.35;;;;;;;8.66;60.87;95263.56;4992034;28;20396;-72
2021/11/13 03:53:12;;;;;;;253.13;25.02;;;;;;;9.17;59.50;95249.50;4992182;28;20267;-72
2021/11/13 03:55:37;;;;;;;270.25;20.52;;;;;;;8.54;60.51;95247.31;4996309;28;20487;-72
2021/11/13 03:58:04;;;;;;;208.07;20.10;;;;;;;8.50;60.81;95260.38;4992218;28;20037;-72
2021/11/13 04:00:30;;;;;;;330.40;32.78;;;;;;;9.26;59.80;95261.00;4991809;28;20029;-72
2021/11/13 04:02:56;;;;;;;155.55;22.85;;;;;;;9.85;59.11;95263.91;4992114;28;20026;-73
2021/11/13 04:05:22;;;;;;;244.18;24.95;;;;;;;9.85;58.59;95263.91;4991014;28;20026;-72
2021/11/13 04:07:49;;;;;;;205.32;22.30;;;;;;;9.82;57.92;95259.97;5007172;28;20088;-72
2021/11/13 04:10:15;;;;;;;214.32;21.23;;;;;;;8.96;58.90;95270.28;4987384;28;20031;-72
2021/11/13 04:12:41;;;;;;;229.05;19.45;;;;;;;8.57;60.46;95267.94;4986695;28;20439;-72
2021/11/13 04:15:08;;;;;;;104.35;20.45;;;;;;;9.27;59.31;95273.22;4991669;28;20376;-72
2021/11/13 04:17:33;;;;;;;214.68;21.73;;;;;;;9.10;59.46;95281.69;4991917;28;20030;-73
2021/11/13 04:19:59;;;;;;;214.70;18.45;;;;;;;8.37;60.42;95294.75;4991498;28;20110;-72
2021/11/13 04:22:25;;;;;;;224.38;19.30;;;;;;;8.19;61.45;95298.91;4991812;28;20038;-72
2021/11/13 04:24:51;;;;;;;275.95;20.17;;;;;;;8.18;62.16;95292.03;4990794;28;20117;-72
2021/11/13 04:27:17;;;;;;;226.02;19.48;;;;;;;8.09;62.12;95294.53;4991374;28;20477;-72
2021/11/13 04:29:43;;;;;;;126.43;20.63;;;;;;;9.05;60.58;95302.22;4991289;28;20042;-72
2021/11/13 04:32:09;;;;;;;102.65;21.55;;;;;;;9.57;60.14;95287.81;4991467;28;20500;-72
2021/11/13 04:37:18;;;;;;;174.13;17.92;;;;;;;9.40;58.30;95290.22;4991597;28;20105;-71
2021/11/13 04:39:45;;;;;;;215.88;17.40;;;;;;;9.19;58.71;95294.31;4990563;28;20524;-71
2021/11/13 04:42:11;;;;;;;154.20;16.27;;;;;;;9.52;58.16;95300.38;4986306;28;20507;-71
2021/11/13 04:44:37;;;;;;;176.13;16.80;;;;;;;9.23;58.29;95303.28;4991186;28;20026;-71
2021/11/13 04:47:03;;;;;;;204.98;17.33;;;;;;;8.73;59.45;95316.25;4991288;28;20057;-71
2021/11/13 04:49:28;;;;;;;284.65;21.58;;;;;;;9.05;59.28;95315.50;4990630;28;20061;-72
2021/11/13 04:51:53;;;;;;;201.30;18.88;;;;;;;8.75;59.53;95314.91;4990830;28;20050;-72
2021/11/13 04:54:19;;;;;;;201.27;19.05;;;;;;;8.96;59.49;95312.72;4990841;28;20076;-72
2021/11/13 04:56:44;;;;;;;230.27;20.00;;;;;;;8.66;60.10;95321.13;4985932;28;20050;-71
2021/11/13 04:59:10;;;;;;;279.95;23.13;;;;;;;9.01;59.32;95317.16;4990777;28;20126;-71
2021/11/13 05:01:35;;;;;;;225.23;19.98;;;;;;;8.27;60.76;95314.97;4991003;28;20105;-72
2021/11/13 05:04:01;;;;;;;235.32;22.80;;;;;;;9.07;59.93;95311.50;5005667;28;20030;-72
2021/11/13 05:06:28;;;;;;;237.38;21.55;;;;;;;8.75;60.49;95327.34;4990982;28;20030;-72
2021/11/13 05:08:56;;;;;;;164.80;19.33;;;;;;;8.76;59.94;95319.13;4990711;28;20033;-71
2021/11/13 05:11:22;;;;;;;274.58;22.73;;;;;;;8.34;61.48;95328.69;4985504;28;20153;-73
2021/11/13 05:13:47;;;;;;;172.10;19.23;;;;;;;8.53;60.44;95320.75;4985402;28;20046;-70
2021/11/13 05:16:13;;;;;;;217.00;21.63;;;;;;;8.32;61.25;95306.94;4990753;28;20094;-71
2021/11/13 05:18:38;;;;;;;163.52;19.73;;;;;;;9.01;59.83;95315.31;4990546;28;20388;-73
2021/11/13 05:21:03;;;;;;;240.55;22.02;;;;;;;8.50;60.35;95331.16;4990436;28;20069;-72
2021/11/13 05:23:29;;;;;;;192.50;19.20;;;;;;;8.15;61.81;95329.72;4990359;28;20030;-71
2021/11/13 05:25:54;;;;;;;182.43;19.67;;;;;;;8.45;60.53;95328.56;4986642;28;20031;-72
2021/11/13 05:28:20;;;;;;;243.70;24.73;;;;;;;8.49;60.23;95318.94;4980694;28;20041;-72
2021/11/13 05:30:45;;;;;;;207.65;20.13;;;;;;;8.10;60.33;95322.59;4990320;28;20022;-71
2021/11/13 05:33:11;;;;;;;273.63;20.25;;;;;;;8.36;60.52;95331.06;4990085;28;20022;-71
2021/11/13 05:35:36;;;;;;;201.27;18.33;;;;;;;7.85;61.63;95341.44;4990279;28;20018;-71
2021/11/13 05:38:03;;;;;;;253.50;21.85;;;;;;;8.45;60.87;95334.66;4990278;28;20407;-71
2021/11/13 05:40:29;;;;;;;206.98;19.35;;;;;;;8.49;60.61;95345.47;4989555;28;20031;-71
2021/11/13 05:42:55;;;;;;;231.55;19.88;;;;;;;7.96;61.44;95345.53;4983869;28;20018;-73
2021/11/13 05:45:21;;;;;;;199.82;20.15;;;;;;;8.63;60.48;95346.34;4991516;28;20388;-71
2021/11/13 05:47:46;;;;;;;141.68;19.58;;;;;;;9.15;59.83;95330.47;4989121;28;20034;-74
2021/11/13 05:50:14;;;;;;;225.75;25.73;;;;;;;9.55;58.99;95329.00;4989728;28;20027;-73
2021/11/13 05:52:41;;;;;;;109.38;17.45;;;;;;;9.87;58.67;95331.59;4990120;28;20026;-73
2021/11/13 05:55:07;;;;;;;112.82;17.83;;;;;;;9.72;57.18;95336.41;4989882;28;20026;-71
2021/11/13 05:57:33;;;;;;;37.80;15.57;;;;;;;10.00;57.11;95324.75;4990080;28;20034;-71
2021/11/13 05:59:58;;;;;;;25.88;13.63;;;;;;;10.23;57.25;95322.94;4989737;28;20435;-71
2021/11/13 06:02:24;;;;;;;46.50;13.82;;;;;;;10.42;56.58;95325.53;4989985;28;20023;-72
2021/11/13 06:04:50;;;;;;;43.90;13.27;;;;;;;10.54;55.77;95341.75;4989672;28;20031;-71
2021/11/13 06:07:15;;;;;;;36.03;12.85;;;;;;;10.67;55.44;95337.50;4990161;28;20022;-71
2021/11/13 06:09:41;;;;;;;37.72;14.70;;;;;;;10.70;54.08;95331.59;4989682;28;20033;-73
2021/11/13 06:12:06;;;;;;;75.47;16.08;;;;;;;10.75;54.15;95331.47;4984689;28;20027;-71
2021/11/13 06:14:32;;;;;;;59.75;16.48;;;;;;;10.92;53.19;95344.16;4984737;28;20069;-74
2021/11/13 06:16:57;;;;;;;125.70;18.45;;;;;;;10.96;54.25;95336.34;5005201;28;20031;-73
2021/11/13 06:19:23;;;;;;;96.30;17.08;;;;;;;10.99;53.62;95331.19;4989854;28;20041;-71
2021/11/13 06:21:49;;;;;;;46.40;14.98;;;;;;;11.03;53.71;95334.84;4989975;28;20049;-74
2021/11/13 06:24:14;;;;;;;74.55;15.80;;;;;;;11.12;53.54;95333.03;4989659;28;20049;-74
2021/11/13 06:26:39;;;;;;;67.57;15.00;;;;;;;11.22;53.32;95345.31;4984616;28;20117;-73
2021/11/13 06:29:06;;;;;;;50.58;12.63;;;;;;;11.25;52.99;95351.91;4989329;28;20033;-73
2021/11/13 06:31:31;;;;;;;83.78;15.77;;;;;;;10.99;52.05;95338.41;4989736;28;20427;-71
2021/11/13 06:33:57;;;;;;;72.47;14.05;;;;;;;10.93;52.17;95345.72;4990645;28;20018;-73
2021/11/13 06:36:22;;;;;;;27.33;12.70;;;;;;;11.06;52.50;95346.78;4993506;28;20488;-73
2021/11/13 06:38:48;;;;;;;17.98;11.20;;;;;;;11.08;52.64;95336.59;4993794;28;20034;-73
2021/11/13 06:41:13;;;;;;;42.03;13.65;;;;;;;11.13;52.18;95331.16;4992778;28;20097;-73
2021/11/13 06:43:38;;;;;;;26.48;11.07;;;;;;;11.19;51.90;95330.72;4988390;28;20138;-74
2021/11/13 06:46:04;;;;;;;20.42;12.30;;;;;;;11.40;52.27;95357.66;4993334;28;20031;-71
2021/11/13 06:48:29;;;;;;;17.17;11.88;;;;;;;11.47;51.99;95348.47;4993544;28;20036;-74
2021/11/13 06:50:55;;;;;;;56.85;13.98;;;;;;;11.58;51.50;95357.78;4993068;28;20026;-74
2021/11/13 06:53:21;;;;;;;60.78;14.57;;;;;;;11.68;51.20;95349.53;4993103;28;20025;-73
2021/11/13 06:55:48;;;;;;;34.90;11.85;;;;;;;11.74;51.18;95356.28;4992995;28;20038;-74
2021/11/13 06:58:14;;;;;;;19.15;11.30;;;;;;;11.80;50.67;95352.41;4992911;28;20037;-73
2021/11/13 07:00:39;;;;;;;17.35;11.32;;;;;;;11.86;50.49;95361.88;4992844;28;20026;-72
2021/11/13 07:03:04;;;;;;;39.63;10.63;;;;;;;11.02;51.37;95375.84;4993057;28;20156;-72
2021/11/13 07:05:30;;;;;;;50.97;11.70;;;;;;;11.12;51.41;95353.53;4993412;28;20101;-73
2021/11/13 07:07:57;;;;;;;15.90;9.88;;;;;;;11.07;51.43;95370.41;4993288;28;20030;-73
2021/11/13 07:10:23;;;;;;;23.00;10.18;;;;;;;11.44;51.47;95371.94;5007845;28;20027;-73
2021/11/13 07:12:48;;;;;;;16.35;9.05;;;;;;;11.69;51.06;95377.75;4988349;28;20029;-73
2021/11/13 07:15:15;;;;;;;21.27;8.35;;;;;;;11.91;50.29;95369.72;4992954;28;20109;-73
2021/11/13 07:17:41;;;;;;;9.55;8.65;;;;;;;12.01;50.12;95359.91;4993062;28;20077;-72
2021/11/13 07:20:08;;;;;;;9.88;7.70;;;;;;;12.23;49.52;95367.81;4992640;28;20046;-72
2021/11/13 07:22:34;;;;;;;11.95;7.65;;;;;;;12.44;49.20;95360.84;4992893;28;20096;-72
2021/11/13 07:25:00;;;;;;;9.43;8.25;;;;;;;12.63;48.55;95351.78;4991305;28;20062;-72
2021/11/13 07:27:25;;;;;;;12.60;7.25;;;;;;;12.66;48.37;95362.63;4987446;28;20490;-71
2021/11/13 07:30:02;;;;;;;9.57;7.20;;;;;;;12.85;47.43;95357.00;4992169;28;20138;-72
2021/11/13 07:32:28;;;;;;;11.95;8.35;;;;;;;12.95;47.28;95337.25;4992786;28;20140;-72
2021/11/13 07:34:54;;;;;;;7.20;6.50;;;;;;;13.04;47.10;95337.22;4992067;28;20037;-71
2021/11/13 07:37:19;;;;;;;7.00;6.40;;;;;;;13.21;46.62;95337.25;4992346;28;20022;-72
2021/11/13 07:39:45;;;;;;;6.97;6.30;;;;;;;13.38;46.53;95339.13;4991982;28;20018;-73
2021/11/13 07:42:10;;;;;;;6.22;5.68;;;;;;;13.48;46.15;95334.25;4987144;28;20085;-70
2021/11/13 07:44:36;;;;;;;7.07;5.57;;;;;;;13.55;46.22;95328.41;4991755;28;20030;-70
2021/11/13 07:47:02;;;;;;;9.02;5.97;;;;;;;13.74;46.00;95336.06;4991009;28;20065;-71
2021/11/13 07:49:27;;;;;;;6.10;5.70;;;;;;;13.67;45.83;95325.88;4991874;28;20096;-71
2021/11/13 07:51:53;;;;;;;7.47;6.13;;;;;;;13.70;45.84;95332.47;4992154;28;20022;-71
2021/11/13 07:54:20;;;;;;;5.65;5.25;;;;;;;13.81;45.47;95316.84;4991728;28;20030;-71
2021/11/13 07:56:45;;;;;;;5.20;4.80;;;;;;;13.97;45.39;95325.91;4996424;28;20033;-71
2021/11/13 07:59:13;;;;;;;5.70;5.30;;;;;;;14.02;44.89;95323.88;4992068;28;20455;-70
2021/11/13 08:01:39;;;;;;;6.35;5.80;;;;;;;13.98;44.60;95311.47;4991262;28;20607;-71
2021/11/13 08:04:04;;;;;;;6.75;6.15;;;;;;;14.05;44.62;95317.09;4991858;28;20037;-70
2021/11/13 08:06:29;;;;;;;5.63;5.22;;;;;;;14.24;44.47;95324.72;4991828;28;20034;-72
2021/11/13 08:08:55;;;;;;;5.10;4.68;;;;;;;14.27;44.51;95321.38;4991737;28;20495;-71
2021/11/13 08:11:21;;;;;;;5.00;4.60;;;;;;;14.34;44.16;95328.94;4991457;28;20648;-74
2021/11/13 08:13:46;;;;;;;5.57;5.18;;;;;;;14.31;43.97;95327.66;4987895;28;20034;-74
2021/11/13 08:16:12;;;;;;;5.38;4.97;;;;;;;14.21;44.33;95333.38;4991745;28;20030;-73
2021/11/13 08:18:38;;;;;;;5.47;4.97;;;;;;;14.16;44.08;95322.88;4992314;28;20037;-72
2021/11/13 08:21:03;;;;;;;5.95;5.40;;;;;;;14.17;44.20;95316.41;4992129;28;20616;-75
2021/11/13 08:23:29;;;;;;;6.28;5.78;;;;;;;14.10;44.03;95311.56;4991366;28;20026;-72
2021/11/13 08:25:55;;;;;;;5.25;4.75;;;;;;;14.11;44.44;95317.69;4992188;28;20088;-73
2021/11/13 08:28:22;;;;;;;4.80;4.50;;;;;;;14.19;44.46;95324.91;4986528;28;20052;-75
2021/11/13 08:30:48;;;;;;;5.38;4.97;;;;;;;14.11;44.32;95315.81;4986175;28;20030;-74
2021/11/13 08:33:14;;;;;;;5.78;5.28;;;;;;;13.86;44.74;95349.56;4991125;28;20518;-72
2021/11/13 08:35:42;;;;;;;6.10;5.50;;;;;;;11.76;49.14;95343.44;4991833;28;20030;-70
2021/11/13 08:38:09;;;;;;;6.70;5.88;;;;;;;10.58;54.70;95352.59;4995621;28;20023;-79
2021/11/13 08:40:36;;;;;;;6.10;5.60;;;;;;;10.47;53.93;95356.53;4995099;28;20022;-78
2021/11/13 08:43:01;;;;;;;5.57;5.18;;;;;;;10.15;55.91;95361.66;4997141;28;20018;-79
2021/11/13 08:45:27;;;;;;;6.45;5.95;;;;;;;9.68;58.13;95378.72;4997975;28;20579;-77
2021/11/13 08:47:53;;;;;;;6.65;6.03;;;;;;;11.03;54.58;95360.66;4991417;28;20042;-70
2021/11/13 08:50:23;;;;;;;6.30;5.80;;;;;;;10.31;55.52;95354.19;4993174;28;20046;-73
2021/11/13 08:52:50;;;;;;;7.18;6.53;;;;;;;8.83;60.11;95369.16;4993691;28;20113;-75
2021/11/13 08:55:19;;;;;;;7.40;6.78;;;;;;;9.43;58.32;95366.66;4993412;28;20022;-72
2021/11/13 08:57:45;;;;;;;7.47;6.78;;;;;;;9.61;58.49;95362.38;4989436;28;20019;-69
2021/11/13 09:00:15;;;;;;;8.68;7.97;;;;;;;10.24;57.30;95358.34;4987695;28;20032;-69
2021/11/13 09:02:41;;;;;;;8.63;7.70;;;;;;;10.72;54.03;95350.69;4990570;28;20468;-73
2021/11/13 09:05:07;;;;;;;8.32;7.63;;;;;;;10.98;53.96;95353.59;4990619;28;20495;-69
2021/11/13 09:07:33;;;;;;;7.72;7.07;;;;;;;11.40;52.91;95357.66;4990487;28;20101;-69
2021/11/13 09:09:58;;;;;;;8.88;8.13;;;;;;;10.57;55.13;95357.13;4990159;28;20560;-69
2021/11/13 09:12:27;;;;;;;9.32;8.52;;;;;;;10.68;55.69;95349.72;4990156;28;20057;-69
2021/11/13 09:14:59;;;;;;;8.38;7.53;;;;;;;10.81;55.20;95351.56;4988519;28;20026;-70
2021/11/13 09:17:25;;;;;;;8.30;7.63;;;;;;;10.82;54.32;95341.72;4990337;28;20023;-69
2021/11/13 09:19:51;;;;;;;8.85;8.02;;;;;;;10.33;55.44;95346.69;4988568;28;20029;-71
2021/11/13 09:22:16;;;;;;;8.15;7.45;;;;;;;11.92;51.66;95339.31;4990647;28;20054;-71
2021/11/13 09:24:42;;;;;;;7.80;7.15;;;;;;;12.12;50.74;95343.31;4990304;28;20480;-70
2021/11/13 09:27:08;;;;;;;7.45;6.88;;;;;;;12.79;49.77;95322.75;4985273;28;20030;-70
2021/11/13 09:29:33;;;;;;;7.55;6.95;;;;;;;11.22;52.28;95342.66;4989968;28;20380;-68
2021/11/13 09:31:59;;;;;;;8.63;7.85;;;;;;;11.49;52.10;95330.28;4990234;28;20033;-69
2021/11/13 09:34:24;;;;;;;7.15;6.40;;;;;;;11.70;51.71;95329.47;4989901;28;20030;-76
2021/11/13 09:36:50;;;;;;;8.00;7.30;;;;;;;12.35;50.84;95341.38;4990147;28;20472;-72
2021/11/13 09:39:17;;;;;;;8.48;7.68;;;;;;;13.30;48.94;95345.25;4989933;28;20026;-79
2021/11/13 09:41:43;;;;;;;7.18;6.57;;;;;;;12.31;49.68;95347.63;4988125;28;20054;-73
2021/11/13 09:44:09;;;;;;;7.88;7.25;;;;;;;12.13;51.01;95344.09;4981489;28;20032;-74
2021/11/13 09:46:36;;;;;;;8.88;7.80;;;;;;;12.66;50.09;95343.16;4990054;28;20050;-75
2021/11/13 09:49:03;;;;;;;7.88;7.05;;;;;;;11.85;50.66;95336.31;4988346;28;20506;-69
2021/11/13 09:51:29;;;;;;;8.48;7.63;;;;;;;11.87;51.57;95347.44;4990226;28;20439;-70
2021/11/13 09:53:56;;;;;;;7.88;7.18;;;;;;;11.66;51.22;95335.72;4990419;28;20026;-70
2021/11/13 09:56:23;;;;;;;8.50;7.00;;;;;;;11.68;52.18;95341.53;4990034;28;20030;-69
2021/11/13 09:58:49;;;;;;;7.97;7.30;;;;;;;12.29;50.96;95339.16;4990541;28;20022;-69
2021/11/13 10:01:15;;;;;;;8.50;7.70;;;;;;;12.74;49.67;95339.72;4990432;28;20093;-70
2021/11/13 10:03:43;;;;;;;9.35;8.25;;;;;;;12.80;48.98;95338.47;4990445;28;20064;-70
2021/11/13 10:06:13;;;;;;;8.40;7.63;;;;;;;13.49;48.27;95341.16;4989726;28;20022;-69
2021/11/13 10:08:39;;;;;;;9.75;8.88;;;;;;;13.65;47.25;95332.63;4990290;28;20019;-69
2021/11/13 10:11:12;;;;;;;9.57;8.68;;;;;;;14.31;46.17;95314.28;4993068;28;20026;-71
2021/11/13 10:13:39;;;;;;;10.45;9.45;;;;;;;14.44;45.82;95325.88;5003786;28;20105;-69
2021/11/13 10:16:11;;;;;;;11.23;10.15;;;;;;;14.28;46.36;95329.13;4993549;28;20530;-70
2021/11/13 10:18:39;;;;;;;;;;;;;;;14.70;45.63;95331.91;4994184;28;20037;-71
2021/11/13 10:21:12;;;;;;;10.80;9.70;;;;;;;15.10;45.02;95331.47;4993314;28;19913;-69
2021/11/13 10:23:51;;;;;;;10.90;9.80;;;;;;;14.19;45.45;95319.56;4993345;28;20034;-70
2021/11/13 10:26:23;;;;;;;11.13;10.02;;;;;;;15.02;45.07;95327.72;4993098;28;20137;-70
2021/11/13 10:29:02;;;;;;;10.85;9.88;;;;;;;15.63;44.17;95331.78;4988966;28;20105;-70
2021/11/13 10:31:33;;;;;;;10.50;9.60;;;;;;;16.01;43.54;95320.81;4993537;28;20396;-70
2021/11/13 10:34:02;;;;;;;10.18;9.25;;;;;;;16.40;42.85;95324.75;4993519;28;20671;-72
2021/11/13 10:36:37;;;;;;;9.52;8.73;;;;;;;16.53;41.78;95314.78;4993223;28;20026;-70
2021/11/13 10:39:05;;;;;;;10.18;9.18;;;;;;;16.55;41.03;95321.38;4991941;28;20398;-70
2021/11/13 10:41:31;;;;;;;12.23;11.13;;;;;;;16.33;41.72;95316.47;4992812;28;20034;-70
2021/11/13 10:43:56;;;;;;;11.27;10.27;;;;;;;16.44;41.64;95317.59;4991713;28;20025;-70
2021/11/13 10:46:24;;;;;;;11.32;10.23;;;;;;;16.56;41.51;95331.00;5009007;28;20026;-70
2021/11/13 10:48:53;;;;;;;12.55;10.45;;;;;;;16.68;41.48;95332.88;4993026;28;20398;-70
2021/11/13 10:51:22;;;;;;;11.73;10.52;;;;;;;16.07;41.14;95325.63;4992842;28;20054;-71
2021/11/13 10:53:49;;;;;;;11.07;10.07;;;;;;;15.97;41.89;95326.06;4993089;28;20101;-70
2021/11/13 10:56:23;;;;;;;11.68;10.45;;;;;;;16.11;42.40;95321.16;4992470;28;20026;-70
2021/11/13 10:58:58;;;;;;;11.85;10.73;;;;;;;15.23;43.50;95322.34;4993081;28;20524;-70
2021/11/13 11:01:23;;;;;;;11.52;10.43;;;;;;;14.74;44.31;95319.44;4991534;28;20435;-69
2021/11/13 11:03:50;;;;;;;12.23;11.07;;;;;;;14.79;45.60;95321.91;4991100;28;20037;-69
2021/11/13 11:06:22;;;;;;;11.68;10.50;;;;;;;14.08;46.40;95329.06;4991620;28;20046;-69
2021/11/13 11:08:48;;;;;;;12.13;11.02;;;;;;;14.19;46.73;95320.34;4991726;28;20029;-69
2021/11/13 11:11:34;;;;;;;12.27;11.05;;;;;;;14.48;46.15;95308.09;5007464;28;20030;-69
2021/11/13 11:14:01;;;;;;;11.70;10.70;;;;;;;14.97;45.67;95309.16;4983732;28;20030;-71
2021/11/13 11:16:30;;;;;;;12.02;10.77;;;;;;;15.80;43.90;95315.53;4992215;28;20042;-69
2021/11/13 11:19:03;;;;;;;12.25;11.00;;;;;;;14.17;47.36;95327.09;4990956;28;20085;-70
2021/11/13 11:21:56;;;;;;;11.38;10.13;;;;;;;15.20;45.47;95319.53;4991698;28;20026;-77